Sparta, TN

8:30 PM CST on February 01, 2015 (GMT -0600)
Bakers Crossroads | Change Station
CLOSE
Current Station
Personal Weather Station
Location: Sparta, TN
Elevation: 1027 ft
Nearby Weather Stations
Active Advisory: Special Statement

Elev 1027 ft 36.01 °N, 85.56 °W | Updated 7 seconds ago

Rain
Rain
55.4 °F
Feels Like 55.4 °F
N
9.2
Wind Variable Wind from North
Gusts 13.6 mph

Today
High -- | Low -- °F
--% Chance of Precip.
Yesterday
High -- | Low -- °F
Precip. -- in
6:42 AM 5:08 PM
Waxing Gibbous, 97% visible
Pressure 29.64 in
Visibility 9.0 miles
Clouds Mostly Cloudy 1500 ft
Overcast 2200 ft
Dew Point 53 °F
Humidity 92%
Rainfall 0.91 in
Snow Depth Not available.
UV 0 out of 12
Pollen 2.80 out of 12
Air Quality Not available.
Flu Activity Not available.
METAR KSRB 020215Z AUTO 22012KT 9SM BKN015 OVC022 12/11 A2964 RMK

More Conditions Fewer Conditions

Pressure 29.64 in
Visibility 9.0 miles
Clouds Mostly Cloudy 1500 ft
Overcast 2200 ft
Dew Point 53 °F
Humidity 92%
Rainfall 0.91 in
Snow Depth Not available.
UV 0 out of 12
Pollen 2.80 out of 12
Air Quality Not available.
Flu Activity Not available.
METAR KSRB 020215Z AUTO 22012KT 9SM BKN015 OVC022 12/11 A2964 RMK

More Conditions Fewer Conditions

10-Day Weather Forecast

Almanac

Astronomy

Feb. 01, 2015 Rise Set
Actual Time
Civil Twilight
Nautical Twilight
Astronomical Twilight
Moon
Length of Visible Light
Length of Day
Tomorrow will be .
, % of the Moon is Illuminated

Today's Extremes

State Highs State Lows

Community

WunderPhotos

Upload Photos

1,792,655 photos uploaded!

WunderBlogs® & News

Nearby

Air Quality

  Air Quality AQ Index Pollutant
Not available.

Snow Depth

Station Depth Elevation

Earthquake Activity

City Distance Mag. Time & Date
Minimum magnitude displayed is 2.5.

Coastal Water Temperatures

Place Temperature

Nearby Weather Stations